createdAt,value
2018-10-19T00:00:51.359Z,27.53
2018-10-19T00:03:20.627Z,27.53
2018-10-19T00:05:50.031Z,26.37
2018-10-19T00:08:19.304Z,28.03
2018-10-19T00:10:48.514Z,28.67
2018-10-19T00:13:17.694Z,27.40
2018-10-19T00:15:46.966Z,27.07
2018-10-19T00:18:16.174Z,28.47
2018-10-19T00:20:45.778Z,27.83
2018-10-19T00:23:15.045Z,28.60
2018-10-19T00:25:44.382Z,29.37
2018-10-19T00:28:13.560Z,27.80
2018-10-19T00:30:42.711Z,30.17
2018-10-19T00:33:11.947Z,30.10
2018-10-19T00:35:41.101Z,28.50
2018-10-19T00:38:10.374Z,30.50
2018-10-19T00:40:39.621Z,29.57
2018-10-19T00:43:08.797Z,29.73
2018-10-19T00:45:43.296Z,30.40
2018-10-19T00:48:18.562Z,30.23
2018-10-19T00:50:47.817Z,29.53
2018-10-19T00:53:16.999Z,29.67
2018-10-19T00:55:46.239Z,29.70
2018-10-19T00:58:15.575Z,30.50
2018-10-19T01:00:44.833Z,28.63
2018-10-19T01:03:14.168Z,28.77
2018-10-19T01:05:43.286Z,31.07
2018-10-19T01:08:12.469Z,29.87
2018-10-19T01:10:41.672Z,30.77
2018-10-19T01:13:10.943Z,31.23
2018-10-19T01:15:40.115Z,30.47
2018-10-19T01:18:09.371Z,29.90
2018-10-19T01:20:38.621Z,30.47
2018-10-19T01:23:07.813Z,31.90
2018-10-19T01:25:40.699Z,31.30
2018-10-19T01:28:10.473Z,30.17
2018-10-19T01:30:39.742Z,32.13
2018-10-19T01:33:09.127Z,32.53
2018-10-19T01:35:38.335Z,31.77
2018-10-19T01:38:07.522Z,33.47
2018-10-19T01:40:36.658Z,33.90
2018-10-19T01:43:05.860Z,33.10
2018-10-19T01:45:35.066Z,32.70
2018-10-19T01:48:04.273Z,34.97
2018-10-19T01:50:33.426Z,33.57
2018-10-19T01:53:02.645Z,33.83
2018-10-19T01:55:31.802Z,34.53
2018-10-19T01:58:01.593Z,34.70
2018-10-19T02:00:30.785Z,34.10
2018-10-19T02:02:59.954Z,36.93
2018-10-19T02:05:29.355Z,35.50
2018-10-19T02:07:58.594Z,34.13
2018-10-19T02:10:27.753Z,34.50
2018-10-19T02:12:57.358Z,36.10
2018-10-19T02:15:26.639Z,35.23
2018-10-19T02:17:55.900Z,34.90
2018-10-19T02:20:25.098Z,36.23
2018-10-19T02:22:54.317Z,36.33
2018-10-19T02:25:23.543Z,34.87
2018-10-19T02:27:52.709Z,34.67
2018-10-19T02:30:21.878Z,33.00
2018-10-19T02:32:51.039Z,34.70
2018-10-19T02:35:20.283Z,34.20
2018-10-19T02:37:49.508Z,33.83
2018-10-19T02:40:18.686Z,34.97
2018-10-19T02:42:47.859Z,33.40
2018-10-19T02:45:17.167Z,33.37
2018-10-19T02:47:46.271Z,33.03
2018-10-19T02:50:15.482Z,33.93
2018-10-19T02:52:44.657Z,33.20
2018-10-19T02:55:13.935Z,34.67
2018-10-19T02:57:43.435Z,35.80
2018-10-19T03:00:13.401Z,35.33
2018-10-19T03:02:42.655Z,35.50
2018-10-19T03:05:12.283Z,36.87
2018-10-19T03:07:41.402Z,35.50
2018-10-19T03:10:10.566Z,36.47
2018-10-19T03:12:39.698Z,36.17
2018-10-19T03:15:09.499Z,36.97
2018-10-19T03:17:39.000Z,35.53
2018-10-19T03:20:08.929Z,35.27
2018-10-19T03:22:38.299Z,37.27
2018-10-19T03:25:08.241Z,37.60
2018-10-19T03:27:37.442Z,35.93
2018-10-19T03:30:07.418Z,38.00
2018-10-19T03:32:36.901Z,36.33
2018-10-19T03:35:06.914Z,38.50
2018-10-19T03:37:36.049Z,37.17
2018-10-19T03:40:05.726Z,38.30
2018-10-19T03:42:34.908Z,37.70
2018-10-19T03:45:04.176Z,38.60
2018-10-19T03:47:33.293Z,40.53
2018-10-19T03:50:02.520Z,40.57
2018-10-19T03:52:31.661Z,39.20
2018-10-19T03:55:00.882Z,38.87
2018-10-19T03:57:30.032Z,39.17
2018-10-19T03:59:59.190Z,38.63
2018-10-19T04:02:28.428Z,38.27
2018-10-19T04:04:57.624Z,39.87
2018-10-19T04:07:26.830Z,38.37
2018-10-19T04:09:55.970Z,38.67
2018-10-19T04:12:25.167Z,37.87
2018-10-19T04:14:54.323Z,39.27
2018-10-19T04:17:23.493Z,38.87
2018-10-19T04:19:52.691Z,40.93
2018-10-19T04:22:21.890Z,40.87
2018-10-19T04:24:51.101Z,38.43
2018-10-19T04:27:20.328Z,39.10
2018-10-19T04:29:49.529Z,39.53
2018-10-19T04:32:18.710Z,39.00
2018-10-19T04:34:47.919Z,38.50
2018-10-19T04:37:17.179Z,39.07
2018-10-19T04:39:46.357Z,38.80
2018-10-19T04:42:15.540Z,36.97
2018-10-19T04:44:44.733Z,37.73
2018-10-19T04:47:14.000Z,37.43
2018-10-19T04:49:43.094Z,37.40
2018-10-19T04:52:12.265Z,38.77
2018-10-19T04:54:41.458Z,39.20
2018-10-19T04:57:10.802Z,38.10
2018-10-19T04:59:39.818Z,36.67
2018-10-19T05:02:09.935Z,38.10
2018-10-19T05:04:39.151Z,38.70
2018-10-19T05:07:08.303Z,38.40
2018-10-19T05:09:37.441Z,39.63
2018-10-19T05:12:06.685Z,41.10
2018-10-19T05:14:35.886Z,41.47
2018-10-19T05:17:05.292Z,42.77
2018-10-19T05:19:34.418Z,42.10
2018-10-19T05:22:03.656Z,44.07
2018-10-19T05:24:33.302Z,43.77
2018-10-19T05:27:02.421Z,43.87
2018-10-19T05:29:31.660Z,47.17
2018-10-19T05:32:00.885Z,45.00
2018-10-19T05:34:30.018Z,46.47
2018-10-19T05:36:59.206Z,46.23
2018-10-19T05:39:28.579Z,50.33
2018-10-19T05:41:57.795Z,48.23
2018-10-19T05:44:26.982Z,47.23
2018-10-19T05:46:56.239Z,47.80
2018-10-19T05:49:25.410Z,48.63
2018-10-19T05:51:54.636Z,48.67
2018-10-19T05:54:23.852Z,50.13
2018-10-19T05:56:53.012Z,47.93
2018-10-19T05:59:22.397Z,50.10
2018-10-19T06:01:51.562Z,51.87
2018-10-19T06:04:20.809Z,48.50
2018-10-19T06:06:49.954Z,49.07
2018-10-19T06:09:19.139Z,48.83
2018-10-19T06:11:48.384Z,48.13
2018-10-19T06:14:17.584Z,48.43
2018-10-19T06:16:46.819Z,49.10
2018-10-19T06:19:15.976Z,49.93
2018-10-19T06:21:45.167Z,49.80
2018-10-19T06:24:14.543Z,50.70
2018-10-19T06:26:43.742Z,50.27
2018-10-19T06:29:13.071Z,49.27
2018-10-19T06:31:42.333Z,48.97
2018-10-19T06:34:11.593Z,47.40
2018-10-19T06:36:40.995Z,48.90
2018-10-19T06:39:11.575Z,48.40
2018-10-19T06:41:40.895Z,47.67
2018-10-19T06:44:10.083Z,48.23
2018-10-19T06:46:39.341Z,46.77
2018-10-19T06:49:08.452Z,48.63
2018-10-19T06:51:37.641Z,46.77
2018-10-19T06:54:06.995Z,47.00
2018-10-19T06:56:36.157Z,49.77
2018-10-19T06:59:05.417Z,48.63
2018-10-19T07:01:34.573Z,47.43
2018-10-19T07:04:03.766Z,50.23
2018-10-19T07:06:33.694Z,49.50
2018-10-19T07:09:02.954Z,48.43
2018-10-19T07:11:32.107Z,49.37
2018-10-19T07:14:01.297Z,51.23
2018-10-19T07:16:30.508Z,51.43
2018-10-19T07:18:59.779Z,51.37
2018-10-19T07:21:29.051Z,52.40
2018-10-19T07:23:58.261Z,52.00
2018-10-19T07:26:27.470Z,52.93
2018-10-19T07:28:56.685Z,51.20
2018-10-19T07:31:25.928Z,51.57
2018-10-19T07:33:55.150Z,51.07
2018-10-19T07:36:24.633Z,50.83
2018-10-19T07:38:54.074Z,50.97
2018-10-19T07:41:23.376Z,51.77
2018-10-19T07:43:52.575Z,53.47
2018-10-19T07:46:21.759Z,54.17
2018-10-19T07:48:51.005Z,49.33
2018-10-19T07:51:20.247Z,51.90
2018-10-19T07:53:49.442Z,51.43
2018-10-19T07:56:18.758Z,53.80
2018-10-19T07:58:47.900Z,52.03
2018-10-19T08:01:17.136Z,52.17
2018-10-19T08:03:46.254Z,51.57
2018-10-19T08:06:15.470Z,52.93
2018-10-19T08:08:44.682Z,53.97
2018-10-19T08:11:14.081Z,51.47
2018-10-19T08:13:43.196Z,55.17
2018-10-19T08:16:12.401Z,53.57
2018-10-19T08:18:41.626Z,52.50
2018-10-19T08:21:10.875Z,51.73
2018-10-19T08:23:40.096Z,51.73
2018-10-19T08:26:09.371Z,49.03
2018-10-19T08:28:38.588Z,52.20
2018-10-19T08:31:07.918Z,52.97
2018-10-19T08:33:37.139Z,53.20
2018-10-19T08:36:06.422Z,53.60
2018-10-19T08:38:35.649Z,54.90
2018-10-19T08:41:05.294Z,52.30
2018-10-19T08:43:34.466Z,51.40
2018-10-19T08:46:09.014Z,52.77
2018-10-19T08:48:38.289Z,54.90
2018-10-19T08:51:08.001Z,54.67
2018-10-19T08:53:37.371Z,53.20
2018-10-19T08:56:06.444Z,53.53
2018-10-19T08:58:35.729Z,55.90
2018-10-19T09:01:04.997Z,55.07
2018-10-19T09:03:34.297Z,53.87
2018-10-19T09:06:03.490Z,55.17
2018-10-19T09:08:32.730Z,56.63
2018-10-19T09:11:02.033Z,55.53
2018-10-19T09:16:10.751Z,56.40
2018-10-19T09:18:40.058Z,54.47
2018-10-19T09:21:09.572Z,57.07
2018-10-19T09:23:38.809Z,55.20
2018-10-19T09:26:08.312Z,54.80
2018-10-19T09:28:39.420Z,59.83
2018-10-19T09:31:10.481Z,56.23
2018-10-19T09:33:42.557Z,57.40
2018-10-19T09:36:11.914Z,56.27
2018-10-19T09:38:43.542Z,51.97
2018-10-19T09:41:12.783Z,54.73
2018-10-19T09:43:41.970Z,54.47
2018-10-19T09:46:13.124Z,54.67
2018-10-19T09:48:42.348Z,53.80
2018-10-19T09:51:12.869Z,56.60
2018-10-19T09:53:43.922Z,55.47
2018-10-19T09:56:13.554Z,55.50
2018-10-19T09:58:44.674Z,53.93
2018-10-19T10:01:19.277Z,61.40
2018-10-19T10:03:51.044Z,55.83
2018-10-19T10:06:20.338Z,59.73
2018-10-19T10:08:49.609Z,57.93
2018-10-19T10:11:19.091Z,53.53
2018-10-19T10:13:48.415Z,50.87
2018-10-19T10:16:17.673Z,52.40
2018-10-19T10:18:47.044Z,55.80
2018-10-19T10:21:23.062Z,54.43
2018-10-19T10:23:52.242Z,52.10
2018-10-19T10:26:21.555Z,54.00
2018-10-19T10:28:50.771Z,56.03
2018-10-19T10:31:19.947Z,68.20
2018-10-19T10:33:49.676Z,59.83
2018-10-19T10:36:18.875Z,55.53
2018-10-19T10:38:48.091Z,53.70
2018-10-19T10:41:17.318Z,54.03
2018-10-19T10:43:46.583Z,56.07
2018-10-19T10:46:15.986Z,53.67
2018-10-19T10:48:45.093Z,54.23
2018-10-19T10:51:14.267Z,54.77
2018-10-19T10:53:43.414Z,54.40
2018-10-19T10:56:12.619Z,58.20
2018-10-19T10:58:41.816Z,52.63
2018-10-19T11:01:11.234Z,55.03
2018-10-19T11:03:40.398Z,55.10
2018-10-19T11:06:09.692Z,53.40
2018-10-19T11:08:38.996Z,52.90
2018-10-19T11:11:11.258Z,55.10
2018-10-19T11:13:41.290Z,52.00
2018-10-19T11:16:11.576Z,51.73
2018-10-19T11:18:41.017Z,58.53
2018-10-19T11:21:10.373Z,51.60
2018-10-19T11:23:39.816Z,51.93
2018-10-19T11:26:09.060Z,83.03
2018-10-19T11:28:38.317Z,54.13
2018-10-19T11:31:07.580Z,52.07
2018-10-19T11:33:37.155Z,54.37
2018-10-19T11:36:06.466Z,53.30
2018-10-19T11:38:35.746Z,60.10
2018-10-19T11:41:06.791Z,51.20
2018-10-19T11:43:35.947Z,53.30
2018-10-19T11:46:05.601Z,52.90
2018-10-19T11:48:36.081Z,54.63
2018-10-19T11:51:06.200Z,55.53
2018-10-19T11:53:35.433Z,54.67
2018-10-19T11:56:05.732Z,53.57
2018-10-19T11:58:35.028Z,52.93
2018-10-19T12:01:04.440Z,53.03
2018-10-19T12:03:33.625Z,53.00
2018-10-19T12:06:02.859Z,57.20
2018-10-19T12:08:32.146Z,58.30
2018-10-19T12:11:01.341Z,52.97
2018-10-19T12:13:30.894Z,52.53
2018-10-19T12:16:00.112Z,52.00
2018-10-19T12:18:29.292Z,63.53
2018-10-19T12:20:58.499Z,54.27
2018-10-19T12:23:27.659Z,53.73
2018-10-19T12:25:56.888Z,57.83
2018-10-19T12:28:26.078Z,53.10
2018-10-19T12:30:55.368Z,52.97
2018-10-19T12:33:24.576Z,51.03
2018-10-19T12:35:53.762Z,53.90
2018-10-19T12:38:23.057Z,52.73
2018-10-19T12:40:52.345Z,49.80
2018-10-19T12:43:21.558Z,50.57
2018-10-19T12:46:28.572Z,51.40
2018-10-19T12:48:57.761Z,51.00
2018-10-19T12:51:27.069Z,52.13
2018-10-19T12:53:56.330Z,47.77
2018-10-19T12:56:25.638Z,50.33
2018-10-19T12:58:55.465Z,49.90
2018-10-19T13:01:26.037Z,51.50
2018-10-19T13:03:55.229Z,49.60
2018-10-19T13:06:31.054Z,52.27
2018-10-19T13:09:00.310Z,50.87
2018-10-19T13:11:29.562Z,50.70
2018-10-19T13:13:58.857Z,52.23
2018-10-19T13:16:28.059Z,52.60
2018-10-19T13:18:57.278Z,49.10
2018-10-19T13:21:26.418Z,51.90
2018-10-19T13:23:55.609Z,50.03
2018-10-19T13:26:25.092Z,50.27
2018-10-19T13:28:54.330Z,50.73
2018-10-19T13:31:23.750Z,50.80
2018-10-19T13:33:53.012Z,49.57
2018-10-19T13:36:22.217Z,51.10
2018-10-19T13:38:51.516Z,48.17
2018-10-19T13:41:20.957Z,50.97
2018-10-19T13:43:50.151Z,51.63
2018-10-19T13:46:19.483Z,49.87
2018-10-19T13:48:48.678Z,50.90
2018-10-19T13:51:18.080Z,50.80
2018-10-19T13:53:47.209Z,50.20
2018-10-19T13:56:16.456Z,49.53
2018-10-19T13:58:45.636Z,49.07
2018-10-19T14:01:14.906Z,50.07
2018-10-19T14:03:44.036Z,46.33
2018-10-19T14:06:13.323Z,50.40
2018-10-19T14:08:42.629Z,49.93
2018-10-19T14:11:12.093Z,49.13
2018-10-19T14:13:41.164Z,48.43
2018-10-19T14:16:10.414Z,50.33
2018-10-19T14:18:39.717Z,47.00
2018-10-19T14:21:08.962Z,47.10
2018-10-19T14:23:38.138Z,49.37
2018-10-19T14:26:07.385Z,46.67
2018-10-19T14:28:36.870Z,46.83
2018-10-19T14:31:06.132Z,47.60
2018-10-19T14:33:35.395Z,50.90
2018-10-19T14:36:04.638Z,49.97
2018-10-19T14:38:34.038Z,47.30
2018-10-19T14:41:03.285Z,46.23
2018-10-19T14:43:32.549Z,46.63
2018-10-19T14:46:01.789Z,47.80
2018-10-19T14:48:30.978Z,48.17
2018-10-19T14:51:00.372Z,45.67
2018-10-19T14:53:29.614Z,46.30
2018-10-19T14:55:58.846Z,44.77
2018-10-19T14:58:28.094Z,47.80
2018-10-19T15:00:57.410Z,45.97
2018-10-19T15:03:26.653Z,45.90
2018-10-19T15:05:55.818Z,45.17
2018-10-19T15:08:25.059Z,44.43
2018-10-19T15:10:54.589Z,47.83
2018-10-19T15:13:23.604Z,47.37
2018-10-19T15:15:52.871Z,44.33
2018-10-19T15:18:22.153Z,45.00
2018-10-19T15:20:54.376Z,46.27
2018-10-19T15:23:23.643Z,44.63
2018-10-19T15:25:53.068Z,45.67
2018-10-19T15:28:22.365Z,45.60
2018-10-19T15:30:51.705Z,45.00
2018-10-19T15:33:20.978Z,46.47
2018-10-19T15:35:50.263Z,45.20
2018-10-19T15:38:19.444Z,46.33
2018-10-19T15:40:48.709Z,50.07
2018-10-19T15:43:17.940Z,47.03
2018-10-19T15:45:47.181Z,46.40
2018-10-19T15:48:16.617Z,46.90
2018-10-19T15:50:45.784Z,46.87
2018-10-19T15:53:15.019Z,45.27
2018-10-19T15:55:44.254Z,45.17
2018-10-19T15:58:13.449Z,46.77
2018-10-19T16:00:43.575Z,46.60
2018-10-19T16:03:12.744Z,47.20
2018-10-19T16:05:41.984Z,45.03
2018-10-19T16:08:11.231Z,44.67
2018-10-19T16:10:40.427Z,44.93
2018-10-19T16:13:09.662Z,44.27
2018-10-19T16:15:38.832Z,45.30
2018-10-19T16:18:08.138Z,44.53
2018-10-19T16:20:38.815Z,43.90
2018-10-19T16:23:08.038Z,45.90
2018-10-19T16:25:37.257Z,45.70
2018-10-19T16:28:06.519Z,45.57
2018-10-19T16:30:36.006Z,47.50
2018-10-19T16:33:05.373Z,75.53
2018-10-19T16:35:34.509Z,50.63
2018-10-19T16:38:03.959Z,45.83
2018-10-19T16:40:33.430Z,43.67
2018-10-19T16:43:02.653Z,43.70
2018-10-19T16:45:31.801Z,44.10
2018-10-19T16:48:01.043Z,45.53
2018-10-19T16:50:30.670Z,42.93
2018-10-19T16:52:59.960Z,44.30
2018-10-19T16:55:29.132Z,44.20
2018-10-19T16:57:58.403Z,42.97
2018-10-19T17:00:27.603Z,43.80
2018-10-19T17:02:57.022Z,44.47
2018-10-19T17:05:26.067Z,44.43
2018-10-19T17:07:55.454Z,42.97
2018-10-19T17:10:24.614Z,43.70
2018-10-19T17:12:53.858Z,45.03
2018-10-19T17:15:23.020Z,44.23
2018-10-19T17:17:52.210Z,45.53
2018-10-19T17:20:21.462Z,43.37
2018-10-19T17:22:50.700Z,44.17
2018-10-19T17:25:20.027Z,42.43
2018-10-19T17:27:49.332Z,44.07
2018-10-19T17:30:18.687Z,43.60
2018-10-19T17:32:47.861Z,43.53
2018-10-19T17:35:17.635Z,42.70
2018-10-19T17:37:46.766Z,43.17
2018-10-19T17:40:16.006Z,43.47
2018-10-19T17:42:45.259Z,43.67
2018-10-19T17:45:14.464Z,43.53
2018-10-19T17:47:43.728Z,43.23
2018-10-19T17:50:12.941Z,42.30
2018-10-19T17:52:42.239Z,43.70
2018-10-19T17:55:12.472Z,43.53
2018-10-19T17:57:41.613Z,45.47
2018-10-19T18:00:12.451Z,44.77
2018-10-19T18:02:41.550Z,44.77
2018-10-19T18:05:10.824Z,46.03
2018-10-19T18:07:40.010Z,46.07
2018-10-19T18:10:09.257Z,45.17
2018-10-19T18:12:38.434Z,45.70
2018-10-19T18:15:08.203Z,44.83
2018-10-19T18:17:38.046Z,46.07
2018-10-19T18:20:07.314Z,46.13
2018-10-19T18:22:36.697Z,44.63
2018-10-19T18:25:06.561Z,44.77
2018-10-19T18:27:35.729Z,46.37
2018-10-19T18:30:05.703Z,48.10
2018-10-19T18:32:34.929Z,46.93
2018-10-19T18:35:04.280Z,46.67
2018-10-19T18:37:33.444Z,47.13
2018-10-19T18:40:02.643Z,47.27
2018-10-19T18:42:31.873Z,45.50
2018-10-19T18:45:01.057Z,47.93
2018-10-19T18:47:30.900Z,46.33
2018-10-19T18:50:00.199Z,44.90
2018-10-19T18:52:29.379Z,44.70
2018-10-19T18:54:58.603Z,46.60
2018-10-19T18:57:27.729Z,46.07
2018-10-19T18:59:57.035Z,44.87
2018-10-19T19:02:26.318Z,43.87
2018-10-19T19:04:56.706Z,45.50
2018-10-19T19:07:25.877Z,43.90
2018-10-19T19:10:00.435Z,45.67
2018-10-19T19:12:29.605Z,46.37
2018-10-19T19:14:59.080Z,47.57
2018-10-19T19:17:28.350Z,50.87
2018-10-19T19:20:03.038Z,46.20
2018-10-19T19:22:32.224Z,47.33
2018-10-19T19:25:06.658Z,47.50
2018-10-19T19:27:35.915Z,48.80
2018-10-19T19:30:05.690Z,48.07
2018-10-19T19:32:34.817Z,48.23
2018-10-19T19:35:04.250Z,48.13
2018-10-19T19:37:33.745Z,47.80
2018-10-19T19:40:02.953Z,45.67
2018-10-19T19:42:37.523Z,44.87
2018-10-19T19:45:06.831Z,45.93
2018-10-19T19:47:41.302Z,48.30
2018-10-19T19:50:10.625Z,46.47
2018-10-19T19:52:39.777Z,45.73
2018-10-19T19:55:09.007Z,45.47
2018-10-19T19:57:38.255Z,46.17
2018-10-19T20:00:07.899Z,46.97
2018-10-19T20:02:37.181Z,46.57
2018-10-19T20:05:07.453Z,46.90
2018-10-19T20:07:36.670Z,46.63
2018-10-19T20:10:07.050Z,48.10
2018-10-19T20:12:36.905Z,47.23
2018-10-19T20:15:07.609Z,48.10
2018-10-19T20:17:36.797Z,47.47
2018-10-19T20:20:07.908Z,47.97
2018-10-19T20:22:37.441Z,46.73
2018-10-19T20:25:08.195Z,47.83
2018-10-19T20:27:38.139Z,48.37
2018-10-19T20:30:09.814Z,49.17
2018-10-19T20:32:39.502Z,50.80
2018-10-19T20:35:09.100Z,51.73
2018-10-19T20:37:38.259Z,52.97
2018-10-19T20:40:07.440Z,50.03
2018-10-19T20:42:36.660Z,51.50
2018-10-19T20:45:06.552Z,53.83
2018-10-19T20:47:35.813Z,50.43
2018-10-19T20:50:05.139Z,50.97
2018-10-19T20:52:34.286Z,51.50
2018-10-19T20:55:03.463Z,51.53
2018-10-19T20:57:32.625Z,48.67
2018-10-19T21:00:01.835Z,51.70
2018-10-19T21:02:31.003Z,51.30
2018-10-19T21:05:00.247Z,51.93
2018-10-19T21:07:29.569Z,49.87
2018-10-19T21:09:58.650Z,49.70
2018-10-19T21:12:27.921Z,50.70
2018-10-19T21:14:57.502Z,50.43
2018-10-19T21:17:26.719Z,50.13
2018-10-19T21:19:56.010Z,50.07
2018-10-19T21:22:25.222Z,51.00
2018-10-19T21:24:54.420Z,50.07
2018-10-19T21:27:23.691Z,50.83
2018-10-19T21:29:52.946Z,50.23
2018-10-19T21:32:28.692Z,50.13
2018-10-19T21:34:57.932Z,51.13
2018-10-19T21:37:27.134Z,52.13
2018-10-19T21:39:56.335Z,52.60
2018-10-19T21:42:25.545Z,50.53
2018-10-19T21:44:54.959Z,50.03
2018-10-19T21:47:24.177Z,52.67
2018-10-19T21:49:53.360Z,53.67
2018-10-19T21:52:22.569Z,51.23
2018-10-19T21:54:52.045Z,54.57
2018-10-19T21:57:21.273Z,56.50
2018-10-19T21:59:50.462Z,54.30
2018-10-19T22:02:19.645Z,55.43
2018-10-19T22:04:48.846Z,54.60
2018-10-19T22:07:18.041Z,56.73
2018-10-19T22:09:47.278Z,57.27
2018-10-19T22:12:16.919Z,58.00
2018-10-19T22:14:46.050Z,57.87
2018-10-19T22:17:15.696Z,58.60
2018-10-19T22:19:45.445Z,60.13
2018-10-19T22:22:14.641Z,56.67
2018-10-19T22:24:43.892Z,55.30
2018-10-19T22:27:13.086Z,54.73
2018-10-19T22:29:42.304Z,51.73
2018-10-19T22:32:11.507Z,53.93
2018-10-19T22:34:40.746Z,53.00
2018-10-19T22:37:10.024Z,53.43
2018-10-19T22:39:39.528Z,55.60
2018-10-19T22:42:08.673Z,55.37
2018-10-19T22:44:37.862Z,54.40
2018-10-19T22:47:07.112Z,54.37
2018-10-19T22:49:36.297Z,54.67
2018-10-19T22:52:05.605Z,52.77
2018-10-19T22:54:34.794Z,52.70
2018-10-19T22:57:04.156Z,52.17
2018-10-19T22:59:33.346Z,51.77
2018-10-19T23:02:02.538Z,51.23
2018-10-19T23:04:31.785Z,51.30
2018-10-19T23:07:01.099Z,52.43
2018-10-19T23:09:30.336Z,51.07
2018-10-19T23:11:59.693Z,55.98
2018-10-19T23:14:28.878Z,53.33
2018-10-19T23:16:58.213Z,53.13
2018-10-19T23:19:27.416Z,50.03
2018-10-19T23:21:56.662Z,52.43
2018-10-19T23:24:25.921Z,51.43
2018-10-19T23:26:55.412Z,52.60
2018-10-19T23:29:24.641Z,52.47
2018-10-19T23:31:53.894Z,52.40
2018-10-19T23:34:23.166Z,51.50
2018-10-19T23:36:52.421Z,52.73
2018-10-19T23:39:21.623Z,52.40
2018-10-19T23:41:50.998Z,53.50
2018-10-19T23:44:20.167Z,52.87
2018-10-19T23:46:49.439Z,50.43
2018-10-19T23:49:18.741Z,55.40
2018-10-19T23:51:47.963Z,53.20
2018-10-19T23:54:17.195Z,53.70
2018-10-19T23:56:46.589Z,53.17
2018-10-19T23:59:15.896Z,54.20
